createdAt,value
2023-03-15T00:02:50.866Z,98082.88
2023-03-15T00:06:56.551Z,98103.75
2023-03-15T00:11:00.468Z,98126.63
2023-03-15T00:15:03.174Z,98156.31
2023-03-15T00:19:05.987Z,98205.53
2023-03-15T00:23:10.490Z,98239.16
2023-03-15T00:27:13.503Z,98255.63
2023-03-15T00:31:18.187Z,98265.72
2023-03-15T00:35:21.536Z,98302.63
2023-03-15T00:39:26.652Z,98313.34
2023-03-15T00:43:29.579Z,98322.06
2023-03-15T00:47:33.399Z,98340.06
2023-03-15T00:51:38.764Z,98372.59
2023-03-15T00:55:44.260Z,98389.75
2023-03-15T00:59:47.695Z,98405.63
2023-03-15T01:03:50.963Z,98412.50
2023-03-15T01:07:54.540Z,98400.44
2023-03-15T01:11:58.730Z,98412.94
2023-03-15T01:16:02.280Z,98420.13
2023-03-15T01:20:06.350Z,98458.50
2023-03-15T01:24:13.900Z,98459.53
2023-03-15T01:28:18.554Z,98464.50
2023-03-15T01:32:21.669Z,98490.88
2023-03-15T01:36:25.147Z,98499.63
2023-03-15T01:40:28.175Z,98519.38
2023-03-15T01:44:54.480Z,98535.50
2023-03-15T01:49:03.728Z,98548.47
2023-03-15T01:53:06.979Z,98572.03
2023-03-15T01:57:15.048Z,98589.63
2023-03-15T02:01:21.776Z,98605.47
2023-03-15T02:05:32.768Z,98629.34
2023-03-15T02:09:43.118Z,98651.13
2023-03-15T02:13:46.825Z,98647.00
2023-03-15T02:17:52.251Z,98667.88
2023-03-15T02:22:08.309Z,98656.69
2023-03-15T02:26:22.619Z,98673.28
2023-03-15T02:30:27.226Z,98671.50
2023-03-15T02:34:30.533Z,98688.91
2023-03-15T02:38:33.694Z,98700.34
2023-03-15T02:42:36.854Z,98697.66
2023-03-15T02:46:45.018Z,98699.59
2023-03-15T02:50:48.402Z,98717.94
2023-03-15T02:54:51.626Z,98745.22
2023-03-15T02:58:54.755Z,98745.13
2023-03-15T03:02:59.385Z,98771.13
2023-03-15T03:07:02.562Z,98773.91
2023-03-15T03:11:06.058Z,98781.72
2023-03-15T03:15:09.855Z,98790.66
2023-03-15T03:19:25.902Z,98780.56
2023-03-15T03:23:29.210Z,98800.41
2023-03-15T03:27:32.231Z,98804.00
2023-03-15T03:31:42.531Z,98820.56
2023-03-15T03:35:47.513Z,98829.47
2023-03-15T03:39:50.757Z,98842.44
2023-03-15T03:43:53.397Z,98852.03
2023-03-15T03:47:56.162Z,98854.69
2023-03-15T03:52:01.725Z,98878.16
2023-03-15T03:56:06.950Z,98880.00
2023-03-15T04:00:12.304Z,98881.78
2023-03-15T04:04:15.603Z,98888.00
2023-03-15T04:08:20.341Z,98892.38
2023-03-15T04:12:23.613Z,98895.94
2023-03-15T04:16:26.727Z,98893.34
2023-03-15T04:20:30.031Z,98890.91
2023-03-15T04:24:35.829Z,98908.22
2023-03-15T04:28:39.173Z,98918.72
2023-03-15T04:32:42.810Z,98926.53
2023-03-15T04:36:46.043Z,98933.50
2023-03-15T04:40:50.638Z,98944.72
2023-03-15T04:44:54.070Z,98949.94
2023-03-15T04:48:56.717Z,98941.44
2023-03-15T04:53:00.231Z,98954.53
2023-03-15T04:57:07.358Z,98957.22
2023-03-15T05:01:10.065Z,98970.31
2023-03-15T05:05:14.115Z,98970.47
2023-03-15T05:09:19.501Z,98969.63
2023-03-15T05:13:23.900Z,98989.63
2023-03-15T05:17:26.708Z,98985.25
2023-03-15T05:21:30.115Z,98992.34
2023-03-15T05:25:32.925Z,98987.94
2023-03-15T05:29:37.168Z,98993.94
2023-03-15T05:33:41.115Z,99006.13
2023-03-15T05:37:44.140Z,99015.78
2023-03-15T05:41:47.046Z,99027.03
2023-03-15T05:45:51.444Z,99027.75
2023-03-15T05:49:54.247Z,99043.28
2023-03-15T05:53:57.472Z,99052.94
2023-03-15T05:58:00.174Z,99066.03
2023-03-15T06:02:05.496Z,99067.66
2023-03-15T06:06:09.119Z,99069.44
2023-03-15T06:10:14.421Z,99082.53
2023-03-15T06:14:17.922Z,99086.13
2023-03-15T06:18:25.207Z,99091.09
2023-03-15T06:22:28.499Z,99098.91
2023-03-15T06:26:31.623Z,99121.25
2023-03-15T06:30:34.535Z,99127.31
2023-03-15T06:34:39.188Z,99132.34
2023-03-15T06:38:42.497Z,99135.72
2023-03-15T06:42:45.368Z,99149.59
2023-03-15T06:46:48.937Z,99160.03
2023-03-15T06:50:53.823Z,99174.81
2023-03-15T06:54:57.192Z,99175.13
2023-03-15T06:59:00.121Z,99195.41
2023-03-15T07:03:03.383Z,99199.00
2023-03-15T07:07:08.162Z,99216.06
2023-03-15T07:11:11.351Z,99219.38
2023-03-15T07:15:17.047Z,99211.44
2023-03-15T07:19:20.191Z,99216.97
2023-03-15T07:23:24.478Z,99231.81
2023-03-15T07:27:27.771Z,99214.25
2023-03-15T07:31:33.305Z,99229.84
2023-03-15T07:35:36.615Z,99225.31
2023-03-15T07:39:41.569Z,99227.03
2023-03-15T08:40:15.871Z,99337.66
2023-03-15T08:44:19.208Z,99352.03
2023-03-15T08:48:22.163Z,99366.38
2023-03-15T08:52:25.693Z,99377.34
2023-03-15T08:56:30.775Z,99375.06
2023-03-15T09:00:33.630Z,99375.91
2023-03-15T09:04:36.798Z,99378.44
2023-03-15T09:08:39.732Z,99383.88
2023-03-15T09:12:44.735Z,99390.44
2023-03-15T09:16:48.388Z,99397.50
2023-03-15T09:20:51.395Z,99391.50
2023-03-15T09:24:54.408Z,99396.97
2023-03-15T09:28:58.578Z,99400.00
2023-03-15T09:33:01.760Z,99398.41
2023-03-15T09:37:08.264Z,99405.03
2023-03-15T09:41:21.175Z,99398.28
2023-03-15T09:45:37.179Z,99405.41
2023-03-15T09:49:46.945Z,99406.19
2023-03-15T09:53:55.980Z,99411.50
2023-03-15T09:58:01.424Z,99415.25
2023-03-15T10:02:20.502Z,99401.44
2023-03-15T10:06:27.530Z,99396.44
2023-03-15T10:10:36.533Z,99390.34
2023-03-15T10:15:16.730Z,99391.72
2023-03-15T10:19:33.742Z,99401.31
2023-03-15T10:23:43.567Z,99409.88
2023-03-15T10:27:54.789Z,99419.47
2023-03-15T10:31:58.061Z,99420.78
2023-03-15T10:36:11.090Z,99416.53
2023-03-15T10:40:16.724Z,99413.16
2023-03-15T10:44:22.279Z,99415.28
2023-03-15T10:48:25.264Z,99409.28
2023-03-15T10:52:36.348Z,99399.53
2023-03-15T10:56:47.014Z,99401.66
2023-03-15T11:00:52.995Z,99395.53
2023-03-15T11:05:03.797Z,99401.78
2023-03-15T11:09:14.830Z,99409.72
2023-03-15T11:13:24.010Z,99409.47
2023-03-15T11:17:29.199Z,99404.72
2023-03-15T11:21:35.033Z,99404.06
2023-03-15T11:25:39.894Z,99397.22
2023-03-15T11:29:45.740Z,99413.88
2023-03-15T11:33:57.357Z,99422.53
2023-03-15T11:38:14.653Z,99419.16
2023-03-15T11:42:27.080Z,99422.28
2023-03-15T11:46:34.582Z,99422.94
2023-03-15T11:50:39.825Z,99427.06
2023-03-15T11:54:45.442Z,99419.22
2023-03-15T11:59:05.570Z,99433.28
2023-03-15T12:03:41.268Z,99428.94
2023-03-15T12:08:17.179Z,99429.44
2023-03-15T12:12:41.592Z,99435.25
2023-03-15T12:16:47.582Z,99433.84
2023-03-15T12:21:07.532Z,99437.59
2023-03-15T12:25:17.022Z,99455.13
2023-03-15T12:29:25.448Z,99460.00
2023-03-15T12:33:34.733Z,99465.97
2023-03-15T12:37:45.572Z,99460.72
2023-03-15T12:41:50.455Z,99463.38
2023-03-15T12:45:53.919Z,99467.03
2023-03-15T12:50:18.544Z,99463.38
2023-03-15T12:54:23.900Z,99479.88
2023-03-15T12:58:33.448Z,99497.66
2023-03-15T13:02:43.702Z,99497.28
2023-03-15T13:07:03.062Z,99508.53
2023-03-15T13:11:17.506Z,99497.50
2023-03-15T13:15:25.292Z,99514.50
2023-03-15T13:19:32.013Z,99499.94
2023-03-15T13:23:36.606Z,99513.25
2023-03-15T13:27:51.362Z,99520.16
2023-03-15T13:32:03.387Z,99528.06
2023-03-15T13:36:13.371Z,99519.22
2023-03-15T13:40:17.921Z,99534.94
2023-03-15T13:44:23.958Z,99535.75
2023-03-15T13:48:31.584Z,99544.97
2023-03-15T13:52:34.892Z,99551.41
2023-03-15T13:56:49.693Z,99544.47
2023-03-15T14:00:59.576Z,99551.47
2023-03-15T14:05:06.703Z,99541.88
2023-03-15T14:09:21.491Z,99548.38
2023-03-15T14:13:29.154Z,99548.69
2023-03-15T14:17:33.623Z,99556.38
2023-03-15T14:21:36.931Z,99560.09
2023-03-15T14:25:40.557Z,99551.91
2023-03-15T14:29:49.219Z,99548.97
2023-03-15T14:34:01.025Z,99558.81
2023-03-15T14:38:08.998Z,99557.72
2023-03-15T14:42:12.931Z,99570.00
2023-03-15T14:46:16.991Z,99569.47
2023-03-15T14:50:25.055Z,99565.16
2023-03-15T14:54:29.898Z,99567.88
2023-03-15T14:58:32.912Z,99573.22
2023-03-15T15:02:38.450Z,99580.56
2023-03-15T15:06:50.744Z,99587.00
2023-03-15T15:10:57.027Z,99583.06
2023-03-15T15:15:00.320Z,99582.63
2023-03-15T15:19:04.848Z,99588.34
2023-03-15T15:23:10.935Z,99599.28
2023-03-15T15:27:14.817Z,99601.41
2023-03-15T15:31:23.175Z,99606.25
2023-03-15T15:35:29.347Z,99609.84
2023-03-15T15:39:32.332Z,99607.16
2023-03-15T15:43:35.339Z,99612.25
2023-03-15T15:47:37.984Z,99623.72
2023-03-15T15:51:46.005Z,99623.91
2023-03-15T15:55:49.140Z,99634.53
2023-03-15T15:59:53.467Z,99628.81
2023-03-15T16:03:56.568Z,99629.47
2023-03-15T16:08:05.408Z,99631.34
2023-03-15T16:12:14.909Z,99641.28
2023-03-15T16:16:19.280Z,99636.41
2023-03-15T16:20:22.679Z,99645.31
2023-03-15T16:24:28.183Z,99646.31
2023-03-15T16:28:31.072Z,99655.94
2023-03-15T16:32:44.033Z,99650.72
2023-03-15T16:36:50.134Z,99660.34
2023-03-15T16:40:54.252Z,99660.91
2023-03-15T16:44:57.271Z,99671.91
2023-03-15T16:49:00.137Z,99675.34
2023-03-15T16:53:05.309Z,99672.25
2023-03-15T16:57:15.820Z,99673.50
2023-03-15T17:01:20.019Z,99682.34
2023-03-15T17:05:25.067Z,99687.69
2023-03-15T17:09:29.107Z,99697.06
2023-03-15T17:13:40.873Z,99692.47
2023-03-15T17:17:44.056Z,99702.59
2023-03-15T17:21:48.065Z,99701.44
2023-03-15T17:25:51.637Z,99701.13
2023-03-15T17:29:57.282Z,99704.03
2023-03-15T17:34:00.354Z,99713.91
2023-03-15T17:38:05.057Z,99712.44
2023-03-15T17:42:07.991Z,99722.22
2023-03-15T17:46:13.669Z,99717.44
2023-03-15T17:50:19.287Z,99728.06
2023-03-15T17:54:22.545Z,99727.56
2023-03-15T17:58:27.347Z,99743.59
2023-03-15T18:02:32.800Z,99738.78
2023-03-15T18:06:36.044Z,99748.44
2023-03-15T18:10:41.752Z,99745.94
2023-03-15T18:14:44.554Z,99752.16
2023-03-15T18:18:49.077Z,99752.25
2023-03-15T18:22:52.193Z,99758.34
2023-03-15T18:26:55.380Z,99768.47
2023-03-15T18:31:01.099Z,99779.44
2023-03-15T18:35:05.964Z,99778.41
2023-03-15T18:39:10.164Z,99774.06
2023-03-15T18:43:14.738Z,99785.31
2023-03-15T18:47:20.376Z,99784.56
2023-03-15T18:51:28.307Z,99781.19
2023-03-15T18:55:33.741Z,99784.78
2023-03-15T18:59:38.933Z,99780.69
2023-03-15T19:03:42.088Z,99785.09
2023-03-15T19:07:47.833Z,99792.03
2023-03-15T19:11:50.766Z,99799.00
2023-03-15T19:15:53.692Z,99793.81
2023-03-15T19:19:57.076Z,99798.28
2023-03-15T19:24:02.144Z,99799.31
2023-03-15T19:28:05.330Z,99802.06
2023-03-15T19:32:08.560Z,99807.41
2023-03-15T19:36:11.427Z,99811.84
2023-03-15T19:40:17.718Z,99812.00
2023-03-15T19:44:22.647Z,99811.19
2023-03-15T19:48:25.870Z,99807.81
2023-03-15T19:52:29.455Z,99822.56
2023-03-15T19:56:33.853Z,99819.22
2023-03-15T20:00:36.956Z,99827.03
2023-03-15T20:04:40.730Z,99837.41
2023-03-15T20:08:44.001Z,99826.19
2023-03-15T20:12:48.989Z,99844.34
2023-03-15T20:16:52.507Z,99843.56
2023-03-15T20:20:55.998Z,99836.69
2023-03-15T20:24:59.028Z,99848.78
2023-03-15T20:29:03.528Z,99844.50
2023-03-15T20:33:06.689Z,99850.41
2023-03-15T20:37:13.647Z,99847.66
2023-03-15T20:41:18.461Z,99843.91
2023-03-15T20:45:22.986Z,99852.09
2023-03-15T20:49:29.197Z,99848.34
2023-03-15T20:53:33.303Z,99847.25
2023-03-15T20:57:36.716Z,99850.47
2023-03-15T21:01:42.069Z,99846.78
2023-03-15T21:05:48.728Z,99863.81
2023-03-15T21:09:53.651Z,99863.47
2023-03-15T21:14:08.068Z,99868.31
2023-03-15T21:18:20.415Z,99872.47
2023-03-15T21:22:23.552Z,99879.22
2023-03-15T21:26:26.484Z,99885.34
2023-03-15T21:30:31.717Z,99894.72
2023-03-15T21:34:41.412Z,99893.72
2023-03-15T21:38:46.043Z,99896.22
2023-03-15T21:42:49.104Z,99897.84
2023-03-15T21:46:53.334Z,99897.03
2023-03-15T21:50:58.074Z,99889.25
2023-03-15T21:55:01.320Z,99900.50
2023-03-15T21:59:05.034Z,99899.69
2023-03-15T22:03:08.065Z,99893.81
2023-03-15T22:07:12.909Z,99903.59
2023-03-15T22:11:16.261Z,99916.69
2023-03-15T22:15:19.642Z,99915.13
2023-03-15T22:19:22.583Z,99922.34
2023-03-15T22:23:28.393Z,99924.31
2023-03-15T22:27:31.464Z,99931.31
2023-03-15T22:31:34.286Z,99933.91
2023-03-15T22:35:38.020Z,99938.44
2023-03-15T22:39:43.468Z,99935.06
2023-03-15T22:43:47.074Z,99941.19
2023-03-15T22:47:50.462Z,99943.72
2023-03-15T22:51:54.084Z,99953.25
2023-03-15T22:56:01.109Z,99953.28
2023-03-15T23:00:07.955Z,99955.94
2023-03-15T23:04:12.606Z,99960.38
2023-03-15T23:08:16.534Z,99964.81
2023-03-15T23:12:27.096Z,99969.25
2023-03-15T23:16:38.133Z,99969.41
2023-03-15T23:20:42.499Z,99965.31
2023-03-15T23:24:46.883Z,99974.97
2023-03-15T23:28:52.248Z,99981.75
2023-03-15T23:32:59.101Z,99986.94
2023-03-15T23:37:02.175Z,99992.09
2023-03-15T23:41:06.427Z,99992.97
2023-03-15T23:45:13.790Z,99990.53
2023-03-15T23:49:17.072Z,100001.88
2023-03-15T23:53:19.974Z,100008.13
2023-03-15T23:57:23.123Z,100013.59
